Weather History for Cavalier, ND

Change the Weather History Date:

Thursday, October 24, 2013

  Actual Average (KGAF) Record (KGAF)
Temperature  
Mean Temperature 36 °F -  
Max Temperature 41 °F 52 °F 76 °F (1978)
Min Temperature 30 °F 33 °F 16 °F (1955)
Degree Days  
Heating Degree Days 30    
Moisture  
Dew Point 28 °F    
Average Humidity 77    
Maximum Humidity 100    
Minimum Humidity 57    
Precipitation  
Precipitation 0.00 in - - ()
Sea Level Pressure  
Sea Level Pressure 30.22 in    
Wind  
Wind Speed 8 mph (WNW)    
Max Wind Speed 14 mph    
Max Gust Speed 22 mph    
Visibility 10 miles    
Events Rain    
Averages and records for this station are not official NWS values.
T = Trace of Precipitation, MM = Missing Value Source: NWS Daily Summary

Daily Weather History Graph

Daily Weather History Graph

Search for Another Location

Airport:

Trip Planner

Search our weather history database for the weather conditions in past years. The results will help you decide how hot, cold, wet, or windy it might be!

Date:

Astronomy

Oct. 24, 2013 Rise Set
Actual Time 8:05 AM CDT 6:23 PM CDT
Civil Twilight 7:32 AM CDT 6:55 PM CDT
Nautical Twilight 6:55 AM CDT 7:32 PM CDT
Astronomical Twilight 6:19 AM CDT 8:08 PM CDT
Moon 10:38 PM CDT (10/24) 1:18 PM CDT (10/24)
Length of Visible Light 11h 23m
Length of Day
10h 18m
Waning Gibbous, 71% of the Moon is Illuminated
Oct 24
Waning Gibbous
Oct 26
Last Quarter
Nov 3
New
Nov 9
First Quarter
Nov 17
Full

Hourly Weather History & Observations

Time (CDT) Temp. Windchill Dew Point Humidity Pressure Visibility Wind Dir Wind Speed Gust Speed Precip Events Conditions
12:15 AM 35.6 °F 29.9 °F 32.0 °F 87% 30.15 in 10.0 mi WNW 6.9 mph - N/A   Mostly Cloudy
12:35 AM 35.6 °F 29.2 °F 32.0 °F 87% 30.16 in 9.0 mi NW 8.1 mph - N/A Rain Light Rain
12:55 AM 35.6 °F 30.7 °F 32.0 °F 87% 30.16 in 10.0 mi WNW 5.8 mph - N/A   Mostly Cloudy
1:15 AM 32.0 °F 27.5 °F 32.0 °F 100% 30.16 in 10.0 mi West 4.6 mph - N/A   Scattered Clouds
1:35 AM 33.8 °F 28.6 °F 32.0 °F 93% 30.16 in 10.0 mi West 5.8 mph - N/A   Mostly Cloudy
1:55 AM 33.8 °F 27.7 °F 32.0 °F 93% 30.17 in 10.0 mi West 6.9 mph - N/A   Mostly Cloudy
2:15 AM 32.0 °F 26.4 °F 32.0 °F 100% 30.17 in 10.0 mi West 5.8 mph - N/A   Mostly Cloudy
2:35 AM 32.0 °F 25.6 °F 32.0 °F 100% 30.17 in 10.0 mi WNW 6.9 mph - N/A   Mostly Cloudy
2:55 AM 33.8 °F 27.0 °F 32.0 °F 93% 30.17 in 10.0 mi NW 8.1 mph - N/A   Partly Cloudy
3:15 AM 32.0 °F 24.8 °F 30.2 °F 93% 30.17 in 10.0 mi NW 8.1 mph - N/A   Clear
3:35 AM 32.0 °F 24.8 °F 30.2 °F 93% 30.18 in 10.0 mi NW 8.1 mph - N/A   Scattered Clouds
3:55 AM 32.0 °F 24.8 °F 28.4 °F 87% 30.18 in 10.0 mi WNW 8.1 mph - N/A   Scattered Clouds
4:15 AM 32.0 °F 24.8 °F 28.4 °F 87% 30.18 in 10.0 mi WNW 8.1 mph - N/A   Scattered Clouds
4:35 AM 32.0 °F 25.6 °F 28.4 °F 87% 30.18 in 10.0 mi WNW 6.9 mph - N/A   Partly Cloudy
4:55 AM 30.2 °F 22.6 °F 26.6 °F 86% 30.18 in 10.0 mi WNW 8.1 mph - N/A   Clear
5:15 AM 32.0 °F 24.8 °F 26.6 °F 80% 30.19 in 10.0 mi WNW 8.1 mph - N/A   Clear
5:35 AM 32.0 °F 24.8 °F 26.6 °F 80% 30.20 in 10.0 mi WNW 8.1 mph - N/A   Clear
5:55 AM 32.0 °F 24.8 °F 26.6 °F 80% 30.20 in 10.0 mi WNW 8.1 mph - N/A   Clear
6:15 AM 32.0 °F 24.2 °F 26.6 °F 80% 30.20 in 10.0 mi WNW 9.2 mph - N/A   Clear
6:35 AM 32.0 °F 24.2 °F 26.6 °F 80% 30.21 in 10.0 mi WNW 9.2 mph - N/A   Scattered Clouds
6:55 AM 32.0 °F 23.6 °F 26.6 °F 80% 30.21 in 10.0 mi WNW 10.4 mph - N/A   Overcast
7:15 AM 32.0 °F 23.0 °F 28.4 °F 87% 30.21 in 10.0 mi WNW 11.5 mph - N/A   Overcast
7:35 AM 32.0 °F 23.6 °F 28.4 °F 87% 30.21 in 10.0 mi WNW 10.4 mph - N/A   Overcast
7:55 AM 32.0 °F 23.6 °F 28.4 °F 87% 30.21 in 10.0 mi WNW 10.4 mph - N/A   Overcast
8:15 AM 32.0 °F 23.0 °F 28.4 °F 87% 30.21 in 10.0 mi WNW 11.5 mph 17.3 mph N/A   Overcast
8:35 AM 32.0 °F 22.5 °F 28.4 °F 87% 30.22 in 10.0 mi WNW 12.7 mph - N/A   Mostly Cloudy
8:55 AM 33.8 °F 25.3 °F 28.4 °F 81% 30.22 in 10.0 mi WNW 11.5 mph - N/A   Mostly Cloudy
9:15 AM 33.8 °F 26.4 °F 28.4 °F 81% 30.22 in 10.0 mi NW 9.2 mph - N/A   Scattered Clouds
9:35 AM 35.6 °F 28.0 °F 30.2 °F 81% 30.23 in 10.0 mi NW 10.4 mph - N/A   Partly Cloudy
9:55 AM 35.6 °F 27.1 °F 30.2 °F 81% 30.23 in 10.0 mi NW 12.7 mph - N/A   Partly Cloudy
10:15 AM 37.4 °F 29.8 °F 30.2 °F 75% 30.24 in 10.0 mi NW 11.5 mph 18.4 mph N/A   Clear
10:35 AM 37.4 °F 29.8 °F 30.2 °F 75% 30.24 in 10.0 mi NW 11.5 mph - N/A   Partly Cloudy
10:55 AM 39.2 °F 31.2 °F 30.2 °F 70% 30.25 in 10.0 mi NNW 13.8 mph 19.6 mph N/A   Mostly Cloudy
11:15 AM 39.2 °F 31.6 °F 30.2 °F 70% 30.25 in 10.0 mi WNW 12.7 mph - N/A   Overcast
11:35 AM 39.2 °F 31.6 °F 28.4 °F 65% 30.25 in 10.0 mi NW 12.7 mph 21.9 mph N/A   Overcast
11:55 AM 39.2 °F 31.6 °F 28.4 °F 65% 30.25 in 10.0 mi NW 12.7 mph 18.4 mph N/A   Mostly Cloudy
12:15 PM 39.2 °F 32.5 °F 28.4 °F 65% 30.26 in 10.0 mi NW 10.4 mph - N/A   Mostly Cloudy
12:35 PM 41.0 °F 34.3 °F 28.4 °F 61% 30.25 in 10.0 mi NW 11.5 mph 19.6 mph N/A   Mostly Cloudy
12:55 PM 41.0 °F 34.3 °F 28.4 °F 61% 30.25 in 10.0 mi NW 11.5 mph - N/A   Mostly Cloudy
1:15 PM 41.0 °F 34.7 °F 28.4 °F 61% 30.25 in 10.0 mi NW 10.4 mph 18.4 mph N/A   Overcast
1:35 PM 41.0 °F 35.8 °F 28.4 °F 61% 30.25 in 10.0 mi NW 8.1 mph 19.6 mph N/A   Overcast
1:55 PM 39.2 °F 31.6 °F 26.6 °F 61% 30.25 in 10.0 mi NW 12.7 mph - N/A   Overcast
2:15 PM 41.0 °F 34.3 °F 26.6 °F 57% 30.25 in 10.0 mi NW 11.5 mph - N/A   Overcast
2:35 PM 41.0 °F 34.3 °F 26.6 °F 57% 30.26 in 10.0 mi NW 11.5 mph 17.3 mph N/A   Overcast
2:55 PM 41.0 °F 34.3 °F 26.6 °F 57% 30.25 in 10.0 mi NNW 11.5 mph - N/A   Overcast
3:15 PM 41.0 °F 34.7 °F 28.4 °F 61% 30.25 in 10.0 mi NW 10.4 mph - N/A   Overcast
3:35 PM 41.0 °F 34.7 °F 26.6 °F 57% 30.25 in 10.0 mi NW 10.4 mph 17.3 mph N/A   Overcast
3:55 PM 41.0 °F 34.3 °F 28.4 °F 61% 30.25 in 10.0 mi NW 11.5 mph - N/A   Overcast
4:15 PM 41.0 °F 35.2 °F 28.4 °F 61% 30.26 in 10.0 mi NW 9.2 mph - N/A   Overcast
4:35 PM 41.0 °F 33.9 °F 28.4 °F 61% 30.26 in 10.0 mi NW 12.7 mph - N/A   Overcast
4:55 PM 41.0 °F 35.2 °F 26.6 °F 57% 30.25 in 10.0 mi NW 9.2 mph 16.1 mph N/A   Overcast
5:15 PM 41.0 °F 36.4 °F 28.4 °F 61% 30.25 in 10.0 mi NW 6.9 mph - N/A   Overcast
5:35 PM 39.2 °F 35.0 °F 26.6 °F 61% 30.25 in 10.0 mi NW 5.8 mph - N/A   Overcast
5:55 PM 37.4 °F 33.8 °F 26.6 °F 65% 30.25 in 10.0 mi NW 4.6 mph - N/A   Scattered Clouds
6:15 PM 37.4 °F 33.8 °F 26.6 °F 65% 30.25 in 10.0 mi WNW 4.6 mph - N/A   Partly Cloudy
6:35 PM 35.6 °F 32.8 °F 26.6 °F 70% 30.25 in 10.0 mi NW 3.5 mph - N/A   Mostly Cloudy
6:55 PM 35.6 °F 31.7 °F 28.4 °F 75% 30.25 in 10.0 mi West 4.6 mph - N/A   Overcast
7:15 PM 33.8 °F 30.8 °F 26.6 °F 75% 30.25 in 10.0 mi WSW 3.5 mph - N/A   Overcast
7:35 PM 33.8 °F 30.8 °F 28.4 °F 81% 30.25 in 10.0 mi West 3.5 mph - N/A   Overcast
7:55 PM 32.0 °F 28.7 °F 28.4 °F 87% 30.25 in 10.0 mi West 3.5 mph - N/A   Overcast
8:15 PM 32.0 °F 28.7 °F 28.4 °F 87% 30.24 in 10.0 mi WSW 3.5 mph - N/A   Overcast
8:35 PM 32.0 °F - 28.4 °F 87% 30.24 in 10.0 mi Calm Calm - N/A   Overcast
8:55 PM 32.0 °F - 28.4 °F 87% 30.24 in 10.0 mi Calm Calm - N/A   Overcast
9:15 PM 33.8 °F 30.8 °F 28.4 °F 81% 30.24 in 10.0 mi WSW 3.5 mph - N/A   Overcast
9:35 PM 35.6 °F - 28.4 °F 75% 30.24 in 10.0 mi Calm Calm - N/A   Overcast
9:55 PM 33.8 °F 29.6 °F 28.4 °F 81% 30.23 in 10.0 mi SSW 4.6 mph - N/A   Overcast
10:15 PM 32.0 °F 26.4 °F 26.6 °F 80% 30.23 in 10.0 mi South 5.8 mph - N/A   Scattered Clouds
10:35 PM 32.0 °F 26.4 °F 26.6 °F 80% 30.23 in 10.0 mi SW 5.8 mph - N/A   Mostly Cloudy
10:55 PM 32.0 °F 25.6 °F 26.6 °F 80% 30.22 in 10.0 mi SW 6.9 mph - N/A   Overcast
11:15 PM 32.0 °F 26.4 °F 26.6 °F 80% 30.21 in 10.0 mi SW 5.8 mph - N/A   Partly Cloudy
11:35 PM 30.2 °F 24.3 °F 26.6 °F 86% 30.21 in 10.0 mi SSW 5.8 mph - N/A   Clear
11:55 PM 30.2 °F 23.4 °F 26.6 °F 86% 30.19 in 10.0 mi SSW 6.9 mph - N/A   Clear